Time;durP1;ratioP1;P1;durP2;ratioP2;P2;SDS_P1;SDS_P2;PMS_P1;PMS_P2;Temp;Humidity;BMP_temperature;BMP_pressure;BME280_temperature;BME280_humidity;BME280_pressure;Samples;Min_cycle;Max_cycle;Signal;HPM_P1;HPM_P2
2022/05/09 00:01:13;;;;;;;15.93;4.35;;;;;;;;;;5135061;27;20046;-58
2022/05/09 00:03:40;;;;;;;18.63;5.15;;;;;;;;;;5135242;27;20445;-58
2022/05/09 00:06:06;;;;;;;21.90;5.70;;;;;;;;;;5135807;27;20035;-59
2022/05/09 00:08:37;;;;;;;25.85;5.30;;;;;;;;;;5134753;27;20489;-58
2022/05/09 00:11:04;;;;;;;12.93;4.80;;;;;;;;;;5135588;27;20500;-58
2022/05/09 00:13:34;;;;;;;12.20;5.32;;;;;;;;;;5135029;27;20035;-58
2022/05/09 00:16:00;;;;;;;19.20;5.10;;;;;;;;;;5134693;27;20480;-57
2022/05/09 00:18:27;;;;;;;15.32;4.70;;;;;;;;;;5135872;27;20043;-58
2022/05/09 00:20:53;;;;;;;16.95;4.47;;;;;;;;;;5134967;27;20039;-58
2022/05/09 00:23:20;;;;;;;11.88;5.18;;;;;;;;;;5134868;27;20039;-58
2022/05/09 00:25:46;;;;;;;12.32;4.45;;;;;;;;;;5134860;27;20035;-58
2022/05/09 00:28:13;;;;;;;19.20;4.57;;;;;;;;;;5134484;27;20045;-58
2022/05/09 00:30:39;;;;;;;26.75;5.40;;;;;;;;;;5134891;27;20408;-58
2022/05/09 00:33:06;;;;;;;14.63;4.47;;;;;;;;;;5135086;27;20526;-58
2022/05/09 00:35:32;;;;;;;20.38;4.82;;;;;;;;;;5134682;27;20043;-58
2022/05/09 00:37:59;;;;;;;16.98;5.18;;;;;;;;;;5134305;27;20043;-58
2022/05/09 00:40:25;;;;;;;15.85;4.60;;;;;;;;;;5133428;27;20499;-58
2022/05/09 00:42:53;;;;;;;16.73;4.68;;;;;;;;;;5134116;27;20643;-58
2022/05/09 00:45:20;;;;;;;13.38;5.32;;;;;;;;;;5133878;27;20054;-59
2022/05/09 00:47:47;;;;;;;14.13;4.82;;;;;;;;;;5134786;27;20119;-58
2022/05/09 00:50:16;;;;;;;10.27;4.50;;;;;;;;;;5134433;27;20031;-58
2022/05/09 00:52:51;;;;;;;12.52;4.60;;;;;;;;;;5133911;27;20041;-58
2022/05/09 00:55:21;;;;;;;15.35;4.32;;;;;;;;;;5134391;27;20039;-58
2022/05/09 00:58:06;;;;;;;23.77;5.75;;;;;;;;;;5134076;27;20483;-58
2022/05/09 01:00:33;;;;;;;16.27;4.82;;;;;;;;;;5134206;27;20043;-57
2022/05/09 01:03:04;;;;;;;10.18;4.20;;;;;;;;;;5134436;27;20072;-58
2022/05/09 01:05:32;;;;;;;10.88;4.35;;;;;;;;;;5134533;27;20129;-58
2022/05/09 01:07:59;;;;;;;11.68;4.88;;;;;;;;;;5133829;27;20042;-57
2022/05/09 01:10:27;;;;;;;11.15;4.38;;;;;;;;;;5133997;27;20416;-58
2022/05/09 01:12:54;;;;;;;19.48;5.25;;;;;;;;;;5133550;27;20023;-58
2022/05/09 01:15:22;;;;;;;13.38;4.82;;;;;;;;;;5134186;27;20065;-58
2022/05/09 01:17:50;;;;;;;11.88;4.50;;;;;;;;;;5133786;27;20394;-58
2022/05/09 01:20:17;;;;;;;14.93;4.38;;;;;;;;;;5134133;27;20042;-58
2022/05/09 01:22:44;;;;;;;19.35;4.75;;;;;;;;;;5133822;27;20033;-58
2022/05/09 01:25:11;;;;;;;14.45;4.28;;;;;;;;;;5133725;27;20538;-58
2022/05/09 01:27:40;;;;;;;18.50;5.00;;;;;;;;;;5134030;27;20039;-58
2022/05/09 01:30:15;;;;;;;11.60;4.47;;;;;;;;;;5133815;27;20403;-58
2022/05/09 01:32:45;;;;;;;15.45;4.85;;;;;;;;;;5133474;27;20039;-58
2022/05/09 01:35:30;;;;;;;17.73;4.95;;;;;;;;;;5133496;27;20043;-58
2022/05/09 01:38:06;;;;;;;11.90;4.05;;;;;;;;;;5133280;27;20039;-58
2022/05/09 01:40:33;;;;;;;20.00;5.03;;;;;;;;;;5133538;27;20043;-58
2022/05/09 01:42:59;;;;;;;13.00;4.00;;;;;;;;;;5133758;27;20050;-58
2022/05/09 01:45:25;;;;;;;9.63;4.25;;;;;;;;;;5133631;27;20056;-57
2022/05/09 01:50:37;;;;;;;8.88;4.13;;;;;;;;;;5130323;27;20058;-58
2022/05/09 01:53:04;;;;;;;16.10;4.93;;;;;;;;;;5133020;27;20047;-58
2022/05/09 01:55:30;;;;;;;19.42;4.90;;;;;;;;;;5132985;27;20035;-58
2022/05/09 01:57:57;;;;;;;15.00;4.43;;;;;;;;;;5133594;27;20050;-58
2022/05/09 02:00:24;;;;;;;13.85;4.20;;;;;;;;;;5133264;27;20040;-58
2022/05/09 02:02:51;;;;;;;10.75;3.75;;;;;;;;;;5133080;27;20108;-58
2022/05/09 02:05:17;;;;;;;19.30;5.43;;;;;;;;;;5132705;27;20039;-58
2022/05/09 02:07:45;;;;;;;18.83;4.55;;;;;;;;;;5133061;27;20119;-58
2022/05/09 02:10:12;;;;;;;14.65;4.47;;;;;;;;;;5132513;27;20071;-58
2022/05/09 02:12:39;;;;;;;17.08;5.07;;;;;;;;;;5133458;27;20035;-58
2022/05/09 02:15:08;;;;;;;10.77;4.10;;;;;;;;;;5132829;27;20047;-58
2022/05/09 02:17:36;;;;;;;12.63;5.35;;;;;;;;;;5132520;27;20035;-58
2022/05/09 02:20:04;;;;;;;17.05;5.53;;;;;;;;;;5132772;27;20113;-58
2022/05/09 02:22:32;;;;;;;9.25;4.10;;;;;;;;;;5133055;27;20565;-58
2022/05/09 02:24:59;;;;;;;14.45;5.05;;;;;;;;;;5132371;27;20119;-58
2022/05/09 02:27:25;;;;;;;13.82;4.90;;;;;;;;;;5133401;27;20043;-58
2022/05/09 02:29:51;;;;;;;18.85;4.68;;;;;;;;;;5132229;27;20047;-57
2022/05/09 02:32:18;;;;;;;14.43;4.43;;;;;;;;;;5132589;27;20035;-58
2022/05/09 02:34:44;;;;;;;13.85;4.80;;;;;;;;;;5132537;27;20062;-58
2022/05/09 02:37:11;;;;;;;14.63;4.20;;;;;;;;;;5132419;27;20043;-58
2022/05/09 02:39:37;;;;;;;20.20;5.18;;;;;;;;;;5132334;27;20047;-58
2022/05/09 02:42:04;;;;;;;17.30;4.75;;;;;;;;;;5133390;27;20039;-58
2022/05/09 02:44:35;;;;;;;16.02;4.32;;;;;;;;;;5132130;27;20396;-58
2022/05/09 02:47:02;;;;;;;12.85;4.38;;;;;;;;;;5132308;28;20035;-58
2022/05/09 02:49:28;;;;;;;8.90;4.07;;;;;;;;;;5132282;28;20420;-58
2022/05/09 02:51:55;;;;;;;13.57;3.88;;;;;;;;;;5132437;28;20078;-58
2022/05/09 02:54:21;;;;;;;10.23;3.45;;;;;;;;;;5132919;28;20047;-58
2022/05/09 02:56:47;;;;;;;446.17;31.75;;;;;;;;;;5132619;27;20516;-58
2022/05/09 02:59:14;;;;;;;6.20;3.20;;;;;;;;;;5132537;28;20061;-58
2022/05/09 03:01:40;;;;;;;10.57;3.08;;;;;;;;;;5131953;28;20041;-58
2022/05/09 03:06:52;;;;;;;17.30;4.00;;;;;;;;;;5132587;27;20046;-58
2022/05/09 03:09:18;;;;;;;8.40;3.13;;;;;;;;;;5135878;27;20393;-58
2022/05/09 03:11:45;;;;;;;8.02;3.22;;;;;;;;;;5136218;27;20042;-58
2022/05/09 03:14:11;;;;;;;9.77;3.42;;;;;;;;;;5135990;27;20039;-57
2022/05/09 03:16:38;;;;;;;13.48;3.55;;;;;;;;;;5135814;27;20126;-58
2022/05/09 03:19:05;;;;;;;13.15;3.10;;;;;;;;;;5136299;27;20031;-58
2022/05/09 03:21:31;;;;;;;9.63;2.85;;;;;;;;;;5137023;27;20046;-58
2022/05/09 03:23:57;;;;;;;13.90;3.22;;;;;;;;;;5135885;27;20039;-58
2022/05/09 03:26:24;;;;;;;15.07;3.00;;;;;;;;;;5136049;27;20039;-58
2022/05/09 03:28:51;;;;;;;14.93;3.72;;;;;;;;;;5136327;27;20043;-58
2022/05/09 03:31:17;;;;;;;57.42;5.60;;;;;;;;;;5135457;27;20039;-58
2022/05/09 03:33:44;;;;;;;23.67;4.03;;;;;;;;;;5135981;27;20397;-58
2022/05/09 03:36:10;;;;;;;25.05;4.97;;;;;;;;;;5136483;27;20043;-58
2022/05/09 03:38:37;;;;;;;12.77;2.80;;;;;;;;;;5135511;27;20118;-58
2022/05/09 03:41:04;;;;;;;12.35;2.42;;;;;;;;;;5135777;27;20408;-58
2022/05/09 03:43:30;;;;;;;12.88;3.10;;;;;;;;;;5135986;27;20033;-58
2022/05/09 03:45:58;;;;;;;18.17;3.78;;;;;;;;;;5135185;27;20057;-58
2022/05/09 03:48:25;;;;;;;11.63;2.78;;;;;;;;;;5136636;27;20515;-57
2022/05/09 03:50:51;;;;;;;26.38;5.13;;;;;;;;;;5135139;27;20047;-58
2022/05/09 03:53:18;;;;;;;6.47;3.00;;;;;;;;;;5135793;27;20031;-58
2022/05/09 03:55:44;;;;;;;11.43;4.18;;;;;;;;;;5135362;27;20119;-58
2022/05/09 03:58:11;;;;;;;11.35;4.22;;;;;;;;;;5135538;27;20040;-57
2022/05/09 04:00:37;;;;;;;25.92;5.72;;;;;;;;;;5135172;27;20126;-58
2022/05/09 04:03:04;;;;;;;23.38;5.53;;;;;;;;;;5135653;27;20031;-58
2022/05/09 04:05:35;;;;;;;9.55;4.38;;;;;;;;;;5135430;27;20051;-58
2022/05/09 04:08:05;;;;;;;7.65;4.15;;;;;;;;;;5135276;27;20119;-58
2022/05/09 04:10:32;;;;;;;10.00;3.72;;;;;;;;;;5135304;27;20131;-58
2022/05/09 04:12:59;;;;;;;16.95;4.82;;;;;;;;;;5135079;27;20036;-58
2022/05/09 04:18:13;;;;;;;19.35;3.05;;;;;;;;;;5135303;27;20035;-58
2022/05/09 04:20:39;;;;;;;27.23;3.88;;;;;;;;;;5133244;27;20511;-58
2022/05/09 04:23:06;;;;;;;8.32;2.45;;;;;;;;;;5134859;27;20039;-58
2022/05/09 04:25:32;;;;;;;11.45;2.55;;;;;;;;;;5134992;27;20035;-58
2022/05/09 04:28:01;;;;;;;24.63;3.67;;;;;;;;;;5134836;27;20043;-59
2022/05/09 04:30:29;;;;;;;11.18;2.55;;;;;;;;;;5135184;27;20046;-59
2022/05/09 04:32:55;;;;;;;24.92;3.35;;;;;;;;;;5134431;27;20050;-58
2022/05/09 04:35:21;;;;;;;9.43;2.08;;;;;;;;;;5134440;27;20045;-58
2022/05/09 04:37:52;;;;;;;14.07;2.65;;;;;;;;;;5134186;27;20036;-58
2022/05/09 04:40:23;;;;;;;12.27;2.50;;;;;;;;;;5134971;27;20028;-58
2022/05/09 04:42:49;;;;;;;23.50;3.58;;;;;;;;;;5134621;27;20047;-57
2022/05/09 04:45:16;;;;;;;15.23;2.88;;;;;;;;;;5134801;27;20118;-58
2022/05/09 04:47:43;;;;;;;18.02;3.10;;;;;;;;;;5116017;27;20508;-58
2022/05/09 04:50:10;;;;;;;8.98;1.90;;;;;;;;;;5134284;27;20401;-58
2022/05/09 04:52:37;;;;;;;13.60;2.20;;;;;;;;;;5134561;27;20039;-58
2022/05/09 04:55:04;;;;;;;14.05;2.22;;;;;;;;;;5134208;27;20131;-58
2022/05/09 04:57:30;;;;;;;24.98;3.80;;;;;;;;;;5132908;27;20046;-58
2022/05/09 04:59:57;;;;;;;19.65;3.25;;;;;;;;;;5131336;27;20047;-58
2022/05/09 05:02:24;;;;;;;12.18;2.42;;;;;;;;;;5133143;27;20031;-59
2022/05/09 05:04:51;;;;;;;13.63;2.00;;;;;;;;;;5133843;27;20067;-58
2022/05/09 05:07:17;;;;;;;9.00;2.10;;;;;;;;;;5134137;27;20041;-59
2022/05/09 05:09:44;;;;;;;12.90;2.78;;;;;;;;;;5134081;27;20043;-59
2022/05/09 05:12:10;;;;;;;11.63;2.35;;;;;;;;;;5134930;27;20049;-58
2022/05/09 05:14:37;;;;;;;68.90;6.13;;;;;;;;;;5132357;27;20408;-59
2022/05/09 05:17:04;;;;;;;21.58;3.42;;;;;;;;;;5131769;27;20110;-58
2022/05/09 05:19:33;;;;;;;21.10;3.38;;;;;;;;;;5131881;27;20408;-58
2022/05/09 05:22:01;;;;;;;17.42;2.10;;;;;;;;;;5133247;27;20110;-59
2022/05/09 05:24:28;;;;;;;10.02;2.53;;;;;;;;;;5133674;27;20420;-58
2022/05/09 05:26:55;;;;;;;6.45;2.10;;;;;;;;;;5133374;27;20057;-58
2022/05/09 05:29:22;;;;;;;17.80;2.85;;;;;;;;;;5133276;27;20039;-58
2022/05/09 05:31:50;;;;;;;13.88;2.53;;;;;;;;;;5132637;27;20091;-58
2022/05/09 05:34:17;;;;;;;18.60;2.72;;;;;;;;;;5133435;27;20050;-58
2022/05/09 05:36:43;;;;;;;18.48;3.13;;;;;;;;;;5133831;27;20096;-58
2022/05/09 05:39:15;;;;;;;11.98;2.35;;;;;;;;;;5133598;27;20043;-59
2022/05/09 05:41:42;;;;;;;21.50;3.70;;;;;;;;;;5133394;27;20400;-58
2022/05/09 05:44:11;;;;;;;9.20;2.20;;;;;;;;;;5133554;27;20035;-59
2022/05/09 05:46:39;;;;;;;16.27;2.80;;;;;;;;;;5132835;27;20052;-59
2022/05/09 05:49:09;;;;;;;13.55;2.40;;;;;;;;;;5133231;27;20055;-59
2022/05/09 05:51:36;;;;;;;8.73;1.88;;;;;;;;;;5134021;27;20039;-59
2022/05/09 05:54:06;;;;;;;17.23;3.13;;;;;;;;;;5133293;27;20092;-59
2022/05/09 05:56:36;;;;;;;18.13;3.40;;;;;;;;;;5133126;27;20118;-59
2022/05/09 05:59:06;;;;;;;;;;;;;;;;;;5133885;27;20058;-59
2022/05/09 06:01:36;;;;;;;20.20;3.20;;;;;;;;;;5132360;27;20297;-58
2022/05/09 06:04:02;;;;;;;10.95;2.53;;;;;;;;;;5133145;27;20047;-58
2022/05/09 06:06:29;;;;;;;69.57;5.22;;;;;;;;;;5133910;27;20481;-59
2022/05/09 06:08:55;;;;;;;122.53;10.15;;;;;;;;;;5132466;27;20075;-58
2022/05/09 06:11:22;;;;;;;27.60;3.20;;;;;;;;;;5132554;27;20066;-58
2022/05/09 06:13:48;;;;;;;15.23;2.53;;;;;;;;;;5132936;27;20370;-58
2022/05/09 06:16:15;;;;;;;14.57;2.25;;;;;;;;;;5132307;27;20397;-58
2022/05/09 06:18:41;;;;;;;16.27;3.00;;;;;;;;;;5132733;27;20032;-58
2022/05/09 06:21:08;;;;;;;10.18;2.13;;;;;;;;;;5133052;27;20127;-58
2022/05/09 06:23:36;;;;;;;13.98;2.58;;;;;;;;;;5132624;27;20130;-58
2022/05/09 06:26:02;;;;;;;7.50;2.15;;;;;;;;;;5132625;27;20039;-58
2022/05/09 06:28:29;;;;;;;8.38;2.00;;;;;;;;;;5132801;27;20088;-58
2022/05/09 06:30:56;;;;;;;20.08;3.17;;;;;;;;;;5113368;27;20055;-58
2022/05/09 06:33:24;;;;;;;11.10;2.45;;;;;;;;;;5133324;27;20108;-59
2022/05/09 06:35:52;;;;;;;10.10;1.67;;;;;;;;;;5132566;27;20035;-59
2022/05/09 06:38:19;;;;;;;10.60;2.58;;;;;;;;;;5132009;27;20493;-59
2022/05/09 06:40:46;;;;;;;23.90;3.35;;;;;;;;;;5132367;27;20035;-58
2022/05/09 06:43:13;;;;;;;13.48;2.42;;;;;;;;;;5131707;27;20039;-58
2022/05/09 06:45:41;;;;;;;22.98;3.30;;;;;;;;;;5113536;28;20039;-59
2022/05/09 06:48:08;;;;;;;59.97;5.82;;;;;;;;;;5133007;28;20058;-59
2022/05/09 06:50:36;;;;;;;10.40;1.80;;;;;;;;;;5132277;28;20039;-59
2022/05/09 06:53:05;;;;;;;3.72;1.20;;;;;;;;;;5132564;28;20031;-58
2022/05/09 06:55:43;;;;;;;8.85;1.80;;;;;;;;;;5132168;28;20039;-58
2022/05/09 06:58:11;;;;;;;10.02;2.10;;;;;;;;;;5132223;27;20028;-59
2022/05/09 07:00:38;;;;;;;8.95;2.15;;;;;;;;;;5132245;27;20503;-58
2022/05/09 07:03:05;;;;;;;9.45;1.70;;;;;;;;;;5132830;28;20559;-58
2022/05/09 07:05:32;;;;;;;7.93;2.10;;;;;;;;;;5132222;27;20042;-58
2022/05/09 07:07:58;;;;;;;13.07;2.28;;;;;;;;;;5132072;27;20039;-58
2022/05/09 07:10:27;;;;;;;8.82;1.83;;;;;;;;;;5132165;28;20043;-59
2022/05/09 07:12:54;;;;;;;18.48;2.63;;;;;;;;;;5132106;27;20043;-58
2022/05/09 07:15:23;;;;;;;8.38;2.33;;;;;;;;;;5132149;28;20035;-59
2022/05/09 07:17:53;;;;;;;9.05;1.83;;;;;;;;;;5132144;28;20035;-58
2022/05/09 07:20:21;;;;;;;34.95;16.17;;;;;;;;;;5126132;27;20027;-59
2022/05/09 07:22:48;;;;;;;8.95;2.05;;;;;;;;;;5131911;28;20400;-59
2022/05/09 07:25:16;;;;;;;12.57;2.45;;;;;;;;;;5131960;28;20126;-58
2022/05/09 07:27:43;;;;;;;18.33;2.95;;;;;;;;;;5132461;28;20039;-58
2022/05/09 07:30:13;;;;;;;9.88;2.63;;;;;;;;;;5131995;28;20042;-59
2022/05/09 07:32:40;;;;;;;52.58;5.13;;;;;;;;;;5131711;28;20456;-59
2022/05/09 07:35:07;;;;;;;10.43;2.10;;;;;;;;;;5131931;28;20053;-59
2022/05/09 07:37:33;;;;;;;107.45;7.75;;;;;;;;;;5131912;28;20043;-58
2022/05/09 07:40:00;;;;;;;14.20;2.25;;;;;;;;;;5131950;28;20043;-58
2022/05/09 07:42:27;;;;;;;55.30;6.63;;;;;;;;;;5132530;28;20078;-58
2022/05/09 07:44:56;;;;;;;45.72;4.72;;;;;;;;;;5130941;27;20047;-58
2022/05/09 07:47:23;;;;;;;11.13;2.25;;;;;;;;;;5131781;28;20031;-59
2022/05/09 07:49:50;;;;;;;9.27;1.98;;;;;;;;;;5131629;27;20039;-58
2022/05/09 07:52:16;;;;;;;12.35;2.15;;;;;;;;;;5131798;28;20046;-58
2022/05/09 07:54:43;;;;;;;10.52;2.05;;;;;;;;;;5133712;27;20039;-59
2022/05/09 07:57:09;;;;;;;20.17;3.17;;;;;;;;;;5135952;27;20042;-59
2022/05/09 07:59:36;;;;;;;11.82;2.15;;;;;;;;;;5135268;27;20035;-59
2022/05/09 08:02:02;;;;;;;8.32;2.20;;;;;;;;;;5135156;27;20035;-59
2022/05/09 08:04:29;;;;;;;12.68;1.95;;;;;;;;;;5135507;27;20477;-58
2022/05/09 08:06:55;;;;;;;16.88;2.72;;;;;;;;;;5135304;27;20035;-58
2022/05/09 08:09:22;;;;;;;9.15;1.88;;;;;;;;;;5135990;27;20489;-59
2022/05/09 08:11:48;;;;;;;19.02;3.05;;;;;;;;;;5134914;27;20031;-58
2022/05/09 08:14:15;;;;;;;34.20;3.35;;;;;;;;;;5134773;27;20038;-59
2022/05/09 08:16:43;;;;;;;12.75;2.67;;;;;;;;;;5134759;27;20446;-58
2022/05/09 08:19:11;;;;;;;18.70;2.75;;;;;;;;;;5135082;27;20099;-58
2022/05/09 08:21:39;;;;;;;46.78;4.90;;;;;;;;;;5135644;27;20035;-58
2022/05/09 08:24:06;;;;;;;7.07;1.80;;;;;;;;;;5135028;27;20121;-58
2022/05/09 08:26:33;;;;;;;3.45;0.93;;;;;;;;;;5134639;27;20046;-59
2022/05/09 08:28:59;;;;;;;22.30;2.65;;;;;;;;;;5134771;27;20047;-59
2022/05/09 08:31:26;;;;;;;16.02;2.92;;;;;;;;;;5134924;27;20055;-58
2022/05/09 08:33:53;;;;;;;14.80;2.72;;;;;;;;;;5134801;27;20054;-59
2022/05/09 08:39:07;;;;;;;11.25;2.00;;;;;;;;;;5134392;27;20432;-58
2022/05/09 08:41:53;;;;;;;7.50;1.48;;;;;;;;;;5134440;27;20038;-59
2022/05/09 08:44:27;;;;;;;7.18;1.50;;;;;;;;;;5134511;27;20485;-58
2022/05/09 08:46:53;;;;;;;10.40;1.83;;;;;;;;;;5134524;27;20583;-59
2022/05/09 08:49:38;;;;;;;10.20;1.80;;;;;;;;;;5134623;27;20031;-59
2022/05/09 08:52:16;;;;;;;26.23;2.72;;;;;;;;;;5134249;27;20046;-59
2022/05/09 08:54:43;;;;;;;14.65;2.55;;;;;;;;;;5130939;27;20039;-58
2022/05/09 08:57:13;;;;;;;68.25;6.32;;;;;;;;;;5134823;27;20401;-58
2022/05/09 09:00:03;;;;;;;39.78;5.25;;;;;;;;;;5133576;27;20395;-59
2022/05/09 09:02:45;;;;;;;15.02;2.15;;;;;;;;;;5123562;27;20047;-59
2022/05/09 09:05:12;;;;;;;42.50;5.18;;;;;;;;;;5133481;27;20055;-59
2022/05/09 09:07:54;;;;;;;14.15;2.33;;;;;;;;;;5133942;27;20050;-58
2022/05/09 09:10:24;;;;;;;13.43;2.40;;;;;;;;;;5134004;27;20040;-58
2022/05/09 09:12:57;;;;;;;19.02;2.70;;;;;;;;;;5133913;27;20118;-59
2022/05/09 09:15:27;;;;;;;17.50;2.15;;;;;;;;;;5134052;27;20489;-58
2022/05/09 09:18:01;;;;;;;14.07;2.05;;;;;;;;;;5133908;27;20058;-59
2022/05/09 09:20:32;;;;;;;11.77;1.83;;;;;;;;;;5133524;27;20050;-58
2022/05/09 09:23:17;;;;;;;8.05;1.63;;;;;;;;;;5133629;27;20077;-59
2022/05/09 09:26:04;;;;;;;31.95;3.03;;;;;;;;;;5133543;27;20043;-58
2022/05/09 09:28:49;;;;;;;8.02;1.77;;;;;;;;;;5050463;28;20049;-59
2022/05/09 09:31:24;;;;;;;13.55;2.10;;;;;;;;;;5050053;28;20400;-59
2022/05/09 09:33:55;;;;;;;43.17;5.90;;;;;;;;;;5050135;28;20060;-59
2022/05/09 09:36:22;;;;;;;9.13;2.08;;;;;;;;;;5050908;28;20394;-59
2022/05/09 09:38:56;;;;;;;20.48;3.05;;;;;;;;;;5049504;28;20240;-59
2022/05/09 09:41:28;;;;;;;11.65;1.90;;;;;;;;;;5050567;28;20049;-59
2022/05/09 09:44:01;;;;;;;14.30;2.40;;;;;;;;;;5049878;28;20116;-58
2022/05/09 09:46:27;;;;;;;4.15;1.30;;;;;;;;;;5049824;28;20057;-59
2022/05/09 09:49:07;;;;;;;45.35;4.18;;;;;;;;;;5050091;28;20045;-58
2022/05/09 09:51:45;;;;;;;11.52;2.13;;;;;;;;;;5050538;28;20127;-58
2022/05/09 09:54:12;;;;;;;9.95;1.85;;;;;;;;;;5049694;28;20533;-58
2022/05/09 09:56:38;;;;;;;8.25;1.95;;;;;;;;;;5050192;28;20080;-58
2022/05/09 09:59:10;;;;;;;23.38;2.58;;;;;;;;;;5049497;28;20049;-58
2022/05/09 10:01:41;;;;;;;8.55;1.90;;;;;;;;;;5049909;28;20064;-58
2022/05/09 10:04:10;;;;;;;8.15;2.05;;;;;;;;;;5049893;28;20049;-59
2022/05/09 10:06:55;;;;;;;14.68;2.67;;;;;;;;;;5119147;27;20061;-58
2022/05/09 10:09:22;;;;;;;8.93;1.75;;;;;;;;;;5131510;27;20039;-59
2022/05/09 10:11:48;;;;;;;23.52;3.00;;;;;;;;;;5132648;27;20035;-58
2022/05/09 10:14:30;;;;;;;10.95;1.52;;;;;;;;;;5132428;27;20051;-58
2022/05/09 10:17:12;;;;;;;29.90;2.50;;;;;;;;;;5122755;27;20394;-59
2022/05/09 10:19:38;;;;;;;14.23;2.05;;;;;;;;;;5132788;27;20028;-59
2022/05/09 10:25:17;;;;;;;24.10;2.95;;;;;;;;;;5132460;27;20497;-58
2022/05/09 10:27:44;;;;;;;107.25;7.68;;;;;;;;;;5132828;27;20074;-59
2022/05/09 10:30:16;;;;;;;31.20;3.75;;;;;;;;;;5133021;27;20050;-59
2022/05/09 10:32:52;;;;;;;12.07;1.95;;;;;;;;;;5132207;27;20049;-57
2022/05/09 10:35:24;;;;;;;91.18;6.75;;;;;;;;;;5132417;27;20121;-58
2022/05/09 10:37:55;;;;;;;33.58;2.75;;;;;;;;;;5131990;27;20031;-58
2022/05/09 10:40:26;;;;;;;40.70;5.80;;;;;;;;;;5132565;27;20038;-58
2022/05/09 10:42:55;;;;;;;22.30;2.90;;;;;;;;;;5133002;27;20039;-59
2022/05/09 10:45:24;;;;;;;12.90;1.85;;;;;;;;;;5132744;27;20492;-58
2022/05/09 10:47:59;;;;;;;17.88;2.45;;;;;;;;;;5132296;28;20058;-58
2022/05/09 10:50:35;;;;;;;35.75;2.65;;;;;;;;;;5132179;28;20051;-58
2022/05/09 10:53:12;;;;;;;20.65;2.40;;;;;;;;;;5132032;27;20082;-58
2022/05/09 10:55:58;;;;;;;10.57;1.83;;;;;;;;;;5132702;28;20050;-58
2022/05/09 10:58:26;;;;;;;11.65;1.83;;;;;;;;;;5132362;27;20063;-58
2022/05/09 11:00:56;;;;;;;15.88;2.47;;;;;;;;;;5131985;27;20045;-58
2022/05/09 11:03:27;;;;;;;14.90;1.90;;;;;;;;;;5133334;27;20043;-59
2022/05/09 11:05:56;;;;;;;9.07;2.63;;;;;;;;;;5131938;27;20470;-58
2022/05/09 11:08:26;;;;;;;51.30;4.38;;;;;;;;;;5132059;27;20035;-58
2022/05/09 11:10:55;;;;;;;46.88;3.85;;;;;;;;;;5131875;27;20046;-58
2022/05/09 11:13:29;;;;;;;17.75;2.45;;;;;;;;;;5132203;28;20528;-58
2022/05/09 11:15:56;;;;;;;29.25;2.95;;;;;;;;;;5131875;28;20098;-58
2022/05/09 11:18:22;;;;;;;25.38;2.58;;;;;;;;;;5133147;28;20046;-58
2022/05/09 11:21:02;;;;;;;11.35;1.95;;;;;;;;;;5131429;27;20039;-58
2022/05/09 11:23:38;;;;;;;6.57;1.80;;;;;;;;;;5132119;28;20114;-58
2022/05/09 11:26:23;;;;;;;7.93;1.73;;;;;;;;;;5131992;27;20047;-58
2022/05/09 11:28:58;;;;;;;17.85;2.15;;;;;;;;;;5132385;27;20118;-58
2022/05/09 11:31:39;;;;;;;16.83;2.05;;;;;;;;;;5135527;27;20039;-58
2022/05/09 11:34:24;;;;;;;16.55;2.65;;;;;;;;;;5135658;27;20023;-57
2022/05/09 11:36:51;;;;;;;18.00;2.55;;;;;;;;;;5135420;27;20131;-58
2022/05/09 11:39:44;;;;;;;8.55;1.73;;;;;;;;;;5136096;27;20046;-58
2022/05/09 11:45:18;;;;;;;37.17;3.95;;;;;;;;;;5135567;27;20057;-58
2022/05/09 11:47:47;;;;;;;63.25;6.63;;;;;;;;;;5135931;27;20042;-57
2022/05/09 11:50:20;;;;;;;7.80;1.30;;;;;;;;;;5135194;27;20110;-58
2022/05/09 11:52:47;;;;;;;6.43;1.02;;;;;;;;;;5135513;27;20057;-58
2022/05/09 11:55:18;;;;;;;7.28;1.60;;;;;;;;;;5135514;27;20758;-59
2022/05/09 11:57:47;;;;;;;12.98;2.50;;;;;;;;;;5135839;27;20043;-59
2022/05/09 12:00:26;;;;;;;9.35;1.55;;;;;;;;;;5135701;27;20580;-58
2022/05/09 12:03:05;;;;;;;15.55;2.05;;;;;;;;;;5135520;27;20492;-58
2022/05/09 12:05:32;;;;;;;5.65;1.20;;;;;;;;;;5135049;27;20110;-58
2022/05/09 12:08:07;;;;;;;13.93;2.17;;;;;;;;;;5135012;27;20047;-59
2022/05/09 12:10:38;;;;;;;7.03;1.40;;;;;;;;;;5135229;27;20043;-58
2022/05/09 12:13:13;;;;;;;16.15;2.42;;;;;;;;;;5135159;27;20489;-57
2022/05/09 12:15:51;;;;;;;8.73;1.40;;;;;;;;;;5131525;27;20401;-58
2022/05/09 12:18:20;;;;;;;62.55;5.13;;;;;;;;;;5134499;27;20043;-58
2022/05/09 12:20:46;;;;;;;32.40;3.90;;;;;;;;;;5134767;27;20084;-58
2022/05/09 12:23:33;;;;;;;7.22;1.52;;;;;;;;;;5135116;27;20043;-58
2022/05/09 12:26:03;;;;;;;11.38;1.77;;;;;;;;;;5135056;27;20122;-58
2022/05/09 12:28:35;;;;;;;13.32;1.77;;;;;;;;;;5135017;27;20031;-58
2022/05/09 12:31:20;;;;;;;29.35;4.18;;;;;;;;;;5134287;27;20053;-58
2022/05/09 12:33:46;;;;;;;14.68;1.80;;;;;;;;;;5134384;27;20062;-59
2022/05/09 12:36:25;;;;;;;34.67;3.47;;;;;;;;;;5135435;27;20035;-59
2022/05/09 12:38:59;;;;;;;44.83;3.90;;;;;;;;;;5134674;27;20031;-58
2022/05/09 12:41:28;;;;;;;10.65;1.40;;;;;;;;;;5133541;27;20031;-58
2022/05/09 12:44:01;;;;;;;26.10;3.15;;;;;;;;;;5134540;27;20054;-57
2022/05/09 12:46:32;;;;;;;4.68;1.35;;;;;;;;;;5134401;27;20476;-57
2022/05/09 12:49:00;;;;;;;21.00;2.72;;;;;;;;;;5134219;27;20070;-58
2022/05/09 12:51:28;;;;;;;6.65;1.35;;;;;;;;;;5135078;27;20043;-57
2022/05/09 12:53:55;;;;;;;20.75;2.63;;;;;;;;;;5134266;27;20047;-58
2022/05/09 12:56:22;;;;;;;10.30;1.50;;;;;;;;;;5134188;27;20038;-58
2022/05/09 12:59:05;;;;;;;13.55;1.92;;;;;;;;;;5134132;27;20096;-58
2022/05/09 13:01:32;;;;;;;16.23;2.40;;;;;;;;;;5134104;27;20043;-58
2022/05/09 13:04:21;;;;;;;18.00;2.35;;;;;;;;;;5134504;27;20047;-58
2022/05/09 13:06:50;;;;;;;16.50;2.25;;;;;;;;;;5134280;27;20088;-59
2022/05/09 13:09:22;;;;;;;15.13;2.63;;;;;;;;;;5134575;27;20054;-59
2022/05/09 13:11:56;;;;;;;10.48;1.80;;;;;;;;;;5133958;27;20038;-58
2022/05/09 13:14:27;;;;;;;7.25;1.70;;;;;;;;;;5133584;27;20041;-58
2022/05/09 13:17:00;;;;;;;14.85;2.33;;;;;;;;;;5133193;27;20057;-58
2022/05/09 13:19:28;;;;;;;17.85;2.55;;;;;;;;;;5133953;27;20037;-58
2022/05/09 13:22:00;;;;;;;22.08;2.90;;;;;;;;;;5134267;27;20075;-59
2022/05/09 13:24:28;;;;;;;4.85;1.13;;;;;;;;;;5134431;27;20039;-58
2022/05/09 13:26:55;;;;;;;16.83;2.67;;;;;;;;;;5133533;27;20069;-59
2022/05/09 13:29:40;;;;;;;26.85;3.42;;;;;;;;;;5133550;27;20046;-57
2022/05/09 13:32:07;;;;;;;10.73;1.80;;;;;;;;;;5133239;27;20585;-58
2022/05/09 13:34:41;;;;;;;13.73;2.35;;;;;;;;;;5120146;27;20487;-58
2022/05/09 13:37:09;;;;;;;12.93;2.30;;;;;;;;;;5133373;27;20035;-58
2022/05/09 13:39:37;;;;;;;17.70;1.98;;;;;;;;;;5134090;27;20489;-58
2022/05/09 13:42:07;;;;;;;16.83;2.03;;;;;;;;;;5133908;27;20062;-58
2022/05/09 13:44:34;;;;;;;25.80;3.30;;;;;;;;;;5133326;27;20130;-58
2022/05/09 13:47:00;;;;;;;12.50;2.10;;;;;;;;;;5132645;27;20190;-58
2022/05/09 13:49:29;;;;;;;12.98;2.10;;;;;;;;;;5133122;27;20035;-58
2022/05/09 13:51:55;;;;;;;23.27;3.25;;;;;;;;;;5132879;27;20043;-58
2022/05/09 13:54:26;;;;;;;206.30;17.08;;;;;;;;;;5133800;27;20096;-58
2022/05/09 13:57:12;;;;;;;53.17;5.78;;;;;;;;;;5132855;27;20066;-58
2022/05/09 13:59:45;;;;;;;40.17;4.65;;;;;;;;;;5132620;27;20031;-58
2022/05/09 14:02:13;;;;;;;12.57;2.03;;;;;;;;;;5132674;27;20511;-58
2022/05/09 14:04:41;;;;;;;18.60;2.60;;;;;;;;;;5132979;27;20058;-58
2022/05/09 14:09:59;;;;;;;29.77;3.78;;;;;;;;;;5130616;27;20050;-58
2022/05/09 14:12:26;;;;;;;23.45;3.00;;;;;;;;;;5133417;27;20047;-58
2022/05/09 14:15:00;;;;;;;269.08;19.88;;;;;;;;;;5131416;27;20053;-58
2022/05/09 14:17:33;;;;;;;114.28;9.80;;;;;;;;;;5132966;27;20039;-58
2022/05/09 14:20:00;;;;;;;13.17;2.30;;;;;;;;;;5132951;27;20038;-58
2022/05/09 14:22:28;;;;;;;15.60;2.20;;;;;;;;;;5132521;27;20455;-58
2022/05/09 14:30:41;;;;;;;5.20;1.50;;;;;;;;;;5132440;27;20035;-59
2022/05/09 14:33:27;;;;;;;14.88;1.95;;;;;;;;;;5132179;27;20050;-59
2022/05/09 14:35:53;;;;;;;24.33;3.03;;;;;;;;;;5132386;27;20388;-58
2022/05/09 14:38:25;;;;;;;17.13;2.67;;;;;;;;;;5132132;27;20043;-58
2022/05/09 14:40:51;;;;;;;7.32;1.80;;;;;;;;;;5132609;27;20039;-58
2022/05/09 14:43:28;;;;;;;32.08;3.70;;;;;;;;;;5132051;27;20397;-58
2022/05/09 14:46:03;;;;;;;142.40;9.68;;;;;;;;;;5132183;27;20561;-58
2022/05/09 14:48:30;;;;;;;47.03;4.05;;;;;;;;;;5133022;27;20118;-58
2022/05/09 14:50:58;;;;;;;10.35;2.00;;;;;;;;;;5132078;28;20072;-58
2022/05/09 14:53:27;;;;;;;18.85;2.83;;;;;;;;;;5132182;27;20069;-57
2022/05/09 14:59:02;;;;;;;20.88;2.40;;;;;;;;;;5131924;27;20497;-58
2022/05/09 15:01:29;;;;;;;17.75;2.58;;;;;;;;;;5131790;27;20121;-58
2022/05/09 15:03:56;;;;;;;17.75;2.20;;;;;;;;;;5132905;27;20483;-58
2022/05/09 15:06:25;;;;;;;8.90;1.92;;;;;;;;;;5136943;27;20039;-58
2022/05/09 15:08:51;;;;;;;18.30;2.53;;;;;;;;;;5136451;27;20481;-58
2022/05/09 15:11:22;;;;;;;17.38;2.58;;;;;;;;;;5136067;27;20396;-58
2022/05/09 15:13:56;;;;;;;13.18;2.20;;;;;;;;;;5135858;27;20126;-59
2022/05/09 15:16:27;;;;;;;18.15;2.40;;;;;;;;;;5135725;27;20039;-58